Taunton, United Kingdom
Current Conditions -  °F | °C
As of 11:50 AM on Friday 28 Nov 2014 (Local Time) from EGDY Reporting Station
Broken Clouds Broken Clouds  
Wind Chill: 52°   Ceiling: 1400
Heat Index: 52°   Visibility: 6mi
Dew Point: 48°   Wind: 16mph
Humidity: 88%   Direction: 70°ENE
Pressure: 29.53"   Gusts: NA
Location:  51.01°N, 3.1°W
Report Text: EGDY 281150Z 07014KT 9999 SCT010 BKN014 11/09 Q1000 GRN TEMPO 8000 HZ SCT010 GRN
Loading
Personal Weather Stations






























Interactive Weather Map New forecast layout! Learn more

10-Day Weather Forecast

Advertisements
Track Severe Weather on mobile